Impacts TAF Board INFO
FOR SITUATIONAL AWARENESS. NOT TO BE USED FOR FLIGHT PLANNING PURPOSES.
IDs:

KCLE - Cleveland/Hopkins In, OH, US

Issued at 0550 UTC 22 Feb 2018
Updated at 0852 UTC 22 Feb 2018
Potential Impact None Slight Moderate High
Time<<23/09Z 23/10Z 23/11Z 23/12Z 23/13Z 23/14Z 23/15Z 23/16Z 23/17Z 23/18Z 23/19Z 23/20Z 23/21Z
Type PRVL PRVL PRVL
VIS >6 >6 >6
CIG 15 15 15
Cover OVC OVC OVC
FltCat MVFR MVFR MVFR
WX -- -- --
WDir 110 110 110
WSpd 9 9 9
WGst -- -- --

Raw TAF
KCLE 220550Z 2206/2312 04010KT P6SM -SNPL OVC010
  FM220900 04011KT 2SM -SNPL BR OVC010
  TEMPO 2211/2215 3SM -SNPL BR OVC015
  FM222000 04012KT P6SM OVC007
  FM230000 04008KT P6SM OVC007
  FM230900 11009KT P6SM OVC015


METAR Board
Radar Display
Forecast Discussion

FOR SITUATIONAL AWARENESS. NOT TO BE USED FOR FLIGHT PLANNING PURPOSES.